MyWebLog Booking Liste

 

Nyhetsmelding

Kopirett © 2014 Værnes Flyklubb. Alle rettigheter reservert.
Joomla! er fri programvare utgitt under GNU/GPL License.
 

METAR

ENVA 020420Z 12008KT CAVOK 11/09 Q1011 RMK WIND 670FT 10009KT

TAF ENVA 0203/0303 13007KT 9999 FEW040 SCT080 PROB30 TEMPO 0209/0303 17015G25KT